Forside
METAR-TAF:

METAR-TAF

Lufthavne :

Ängelholm-Helsingborg Lufthavn

Helsingborg, Sverige

Breddekreds: 56-17-46N, længdekreds: 012-50-50E, højde: 21 m

Aktuelle vejr

Denne rapport blev lavet for 24 minutter siden, kl. 10:20 UTC
Vind 10 kt fra sydøst
Temperatur 7°C
Fugtighed 100%
Tryk 1007 hPa
Sigt: 9000 m
let finregn,

METAR: ESTA 021020Z AUTO 13010KT 9000 -DZ OVC006/// 07/07 Q1007

Tid: 11:44 (10:44 UTC)

Vejrudsigter

Denne rapport blev lavet for 24 minutter siden, kl. 10:20 UTC
Foreløbig gælder fra 02 på 11 UTC til 02 på 16 UTC
Vind 10 kt fra øst
Sigt: 6000 m
Brudte skyer i en højde af 1500 ft
Midlertidig
fra 02 på 11 UTC til 02 på 16 UTC
Sigt: 1000 m
Brudte skyer i en højde af 400 ft
regn, finregn, dis,

TAF: ESTA 021020Z 0211/0216 10010KT 6000 BKN015 TEMPO 0211/0216 1000 RADZ BR BKN004

Vejrobservationer og prognoser fra mere end 4000 lufthavne (METAR og TAF).

De gule og røde prikker repræsenterer de meteorologiske stationer.

Flyt musen over at se navnet på stationen.

Så klik over at se vejr observationer og prognoser.

At skifte det kort: Klik på de grønne knapper med et sort kors for at zoome ind; på den grønne knap med en bindestreg for at zoome ud; eller på de grønne pile for tilstødende kort.


METAR-TAF: